Time;durP1;ratioP1;P1;durP2;ratioP2;P2;SDS_P1;SDS_P2;PMS_P1;PMS_P2;Temp;Humidity;BMP_temperature;BMP_pressure;BME280_temperature;BME280_humidity;BME280_pressure;Samples;Min_cycle;Max_cycle;Signal;HPM_P1;HPM_P2
2022/12/18 00:04:35;;;;;;;;;;;;;;;;;;5102409;23;6958;-75
2022/12/18 00:07:01;;;;;;;;;;;;;;;;;;5211781;22;7156;-75
2022/12/18 00:09:27;;;;;;;;;;;;;;;;;;5119441;23;8455;-75
2022/12/18 00:11:53;;;;;;;;;;;;;;;;;;5076150;28;7345;-75
2022/12/18 00:14:19;;;;;;;;;;;;;;;;;;5076331;28;7199;-75
2022/12/18 00:16:45;;;;;;;;;;;;;;;;;;5076294;28;7078;-75
2022/12/18 00:19:11;;;;;;;;;;;;;;;;;;5076996;28;7232;-75
2022/12/18 00:21:41;;;;;;;;;;;;;;;;;;5084504;22;7107;-75
2022/12/18 00:24:06;;;;;;;;;;;;;;;;;;5075325;23;7006;-75
2022/12/18 00:26:33;;;;;;;;;;;;;;;;;;5109761;23;8518;-74
2022/12/18 00:39:07;;;;;;;;;;;;;;;;;;5054031;28;7131;-74
2022/12/18 00:44:18;;;;;;;;;;;;;;;;;;5085529;23;6911;-75
2022/12/18 00:46:45;;;;;;;;;;;;;;;;;;5035002;28;8845;-75
2022/12/18 00:49:17;;;;;;;;;;;;;;;;;;5034498;28;8402;-75
2022/12/18 00:51:43;;;;;;;;;;;;;;;;;;5035624;28;7260;-75
2022/12/18 00:54:09;;;;;;;;;;;;;;;;;;5035183;28;8391;-75
2022/12/18 00:56:38;;;;;;;;;;;;;;;;;;5035689;28;7080;-75
2022/12/18 00:59:03;;;;;;;;;;;;;;;;;;5017231;28;7192;-75
2022/12/18 01:01:29;;;;;;;;;;;;;;;;;;5015227;28;7059;-75
2022/12/18 01:03:59;;;;;;;;;;;;;;;;;;5016332;28;6948;-75
2022/12/18 01:06:24;;;;;;;;;;;;;;;;;;5015628;28;7081;-75
2022/12/18 01:08:50;;;;;;;;;;;;;;;;;;5015242;28;7196;-75
2022/12/18 01:11:17;;;;;;;;;;;;;;;;;;5015447;28;7231;-75
2022/12/18 01:13:44;;;;;;;;;;;;;;;;;;5015385;28;6961;-75
2022/12/18 01:16:15;;;;;;;;;;;;;;;;;;5015519;28;7229;-75
2022/12/18 01:18:41;;;;;;;;;;;;;;;;;;5015456;28;7112;-75
2022/12/18 01:21:11;;;;;;;;;;;;;;;;;;5015346;28;7137;-75
2022/12/18 01:23:38;;;;;;;;;;;;;;;;;;5015289;28;7240;-75
2022/12/18 01:26:08;;;;;;;;;;;;;;;;;;5015653;28;7171;-75
2022/12/18 01:28:34;;;;;;;;;;;;;;;;;;5015736;28;7129;-75
2022/12/18 01:31:19;;;;;;;;;;;;;;;;;;5015145;28;6992;-75
2022/12/18 01:33:48;;;;;;;;;;;;;;;;;;5016255;28;7112;-75
2022/12/18 01:36:19;;;;;;;;;;;;;;;;;;5015125;28;7358;-75
2022/12/18 01:38:44;;;;;;;;;;;;;;;;;;5015095;28;7550;-75
2022/12/18 01:41:12;;;;;;;;;;;;;;;;;;5013755;28;6989;-75
2022/12/18 01:43:57;;;;;;;;;;;;;;;;;;5016294;28;7199;-75
2022/12/18 01:46:27;;;;;;;;;;;;;;;;;;5014587;28;7124;-75
2022/12/18 01:48:56;;;;;;;;;;;;;;;;;;5015024;28;7106;-75
2022/12/18 01:51:23;;;;;;;;;;;;;;;;;;5015135;28;7101;-75
2022/12/18 01:53:49;;;;;;;;;;;;;;;;;;5014877;28;7156;-75
2022/12/18 01:56:16;;;;;;;;;;;;;;;;;;5017312;28;7245;-75
2022/12/18 01:58:54;;;;;;;;;;;;;;;;;;5014602;28;7245;-75
2022/12/18 02:01:23;;;;;;;;;;;;;;;;;;5014844;28;7143;-75
2022/12/18 02:03:49;;;;;;;;;;;;;;;;;;5014531;28;6908;-75
2022/12/18 02:06:23;;;;;;;;;;;;;;;;;;5014838;28;7146;-75
2022/12/18 02:11:46;;;;;;;;;;;;;;;;;;5072737;28;7108;-75
2022/12/18 02:14:18;;;;;;;;;;;;;;;;;;5076518;28;7407;-75
2022/12/18 02:16:50;;;;;;;;;;;;;;;;;;5077223;28;8848;-75
2022/12/18 02:19:46;;;;;;;;;;;;;;;;;;5078561;28;7100;-75
2022/12/18 02:24:56;;;;;;;;;;;;;;;;;;5081725;22;6720;-75
2022/12/18 02:30:06;;;;;;;;;;;;;;;;;;5036466;28;6925;-75
2022/12/18 02:32:39;;;;;;;;;;;;;;;;;;5076903;23;7331;-75
2022/12/18 02:35:09;;;;;;;;;;;;;;;;;;5037024;28;8918;-75
2022/12/18 02:37:37;;;;;;;;;;;;;;;;;;5036946;28;8707;-75
2022/12/18 02:40:04;;;;;;;;;;;;;;;;;;5038067;28;7210;-75
2022/12/18 02:42:31;;;;;;;;;;;;;;;;;;5037387;28;8780;-75
2022/12/18 02:44:57;;;;;;;;;;;;;;;;;;5036605;28;9180;-75
2022/12/18 02:47:27;;;;;;;;;;;;;;;;;;5037257;28;8584;-75
2022/12/18 02:50:11;;;;;;;;;;;;;;;;;;5037459;28;7181;-75
2022/12/18 02:52:40;;;;;;;;;;;;;;;;;;5037465;28;7005;-75
2022/12/18 02:55:05;;;;;;;;;;;;;;;;;;5037896;28;7115;-76
2022/12/18 02:57:36;;;;;;;;;;;;;;;;;;5032000;28;7117;-76
2022/12/18 03:00:07;;;;;;;;;;;;;;;;;;5020850;28;7236;-75
2022/12/18 03:02:48;;;;;;;;;;;;;;;;;;5017878;28;7132;-75
2022/12/18 03:05:22;;;;;;;;;;;;;;;;;;5017896;28;7481;-75
2022/12/18 03:07:56;;;;;;;;;;;;;;;;;;5017789;28;7138;-75
2022/12/18 03:10:26;;;;;;;;;;;;;;;;;;5017765;28;7345;-75
2022/12/18 03:12:59;;;;;;;;;;;;;;;;;;5017646;28;7141;-75
2022/12/18 03:15:36;;;;;;;;;;;;;;;;;;5017662;28;7205;-75
2022/12/18 03:18:06;;;;;;;;;;;;;;;;;;5017690;28;6941;-75
2022/12/18 03:20:34;;;;;;;;;;;;;;;;;;5017432;28;7174;-75
2022/12/18 03:23:04;;;;;;;;;;;;;;;;;;5017539;28;7249;-75
2022/12/18 03:25:32;;;;;;;;;;;;;;;;;;4999293;28;8710;-75
2022/12/18 03:28:01;;;;;;;;;;;;;;;;;;5017291;28;7301;-75
2022/12/18 03:30:30;;;;;;;;;;;;;;;;;;5017253;28;7271;-75
2022/12/18 03:33:03;;;;;;;;;;;;;;;;;;4999553;28;8519;-76
2022/12/18 03:35:33;;;;;;;;;;;;;;;;;;5017300;28;7477;-76
2022/12/18 03:37:58;;;;;;;;;;;;;;;;;;5017350;28;6816;-76
2022/12/18 03:40:31;;;;;;;;;;;;;;;;;;5017753;28;7020;-76
2022/12/18 03:43:03;;;;;;;;;;;;;;;;;;5017706;28;6929;-76
2022/12/18 03:45:36;;;;;;;;;;;;;;;;;;5017164;28;7093;-76
2022/12/18 03:48:17;;;;;;;;;;;;;;;;;;5017089;28;6962;-76
2022/12/18 03:51:05;;;;;;;;;;;;;;;;;;5016910;28;7148;-76
2022/12/18 03:53:36;;;;;;;;;;;;;;;;;;5016912;28;7147;-76
2022/12/18 03:56:04;;;;;;;;;;;;;;;;;;5018633;28;7296;-76
2022/12/18 03:58:33;;;;;;;;;;;;;;;;;;5025596;28;7428;-76
2022/12/18 04:01:03;;;;;;;;;;;;;;;;;;5036221;28;7915;-75
2022/12/18 04:03:32;;;;;;;;;;;;;;;;;;5036293;28;7075;-75
2022/12/18 04:06:00;;;;;;;;;;;;;;;;;;5036627;28;6841;-76
2022/12/18 04:08:27;;;;;;;;;;;;;;;;;;5036516;28;7522;-76
2022/12/18 04:10:52;;;;;;;;;;;;;;;;;;5036342;28;7439;-76
2022/12/18 04:13:22;;;;;;;;;;;;;;;;;;5036413;28;7175;-78
2022/12/18 04:15:48;;;;;;;;;;;;;;;;;;5036306;28;7215;-76
2022/12/18 04:18:13;;;;;;;;;;;;;;;;;;5036321;28;7231;-76
2022/12/18 04:20:39;;;;;;;;;;;;;;;;;;5035894;28;7157;-76
2022/12/18 04:23:04;;;;;;;;;;;;;;;;;;5036413;28;7034;-76
2022/12/18 04:25:29;;;;;;;;;;;;;;;;;;5035736;28;7034;-76
2022/12/18 04:27:55;;;;;;;;;;;;;;;;;;5037009;28;7211;-76
2022/12/18 04:30:22;;;;;;;;;;;;;;;;;;5035930;28;7375;-76
2022/12/18 04:32:47;;;;;;;;;;;;;;;;;;5035587;28;6961;-76
2022/12/18 04:35:13;;;;;;;;;;;;;;;;;;5035902;28;7047;-76
2022/12/18 04:37:39;;;;;;;;;;;;;;;;;;5035269;28;7187;-76
2022/12/18 04:40:05;;;;;;;;;;;;;;;;;;5035794;28;7142;-76
2022/12/18 04:42:32;;;;;;;;;;;;;;;;;;5035923;28;7406;-76
2022/12/18 04:44:58;;;;;;;;;;;;;;;;;;5035650;28;7276;-76
2022/12/18 04:47:24;;;;;;;;;;;;;;;;;;5018708;28;8461;-77
2022/12/18 04:49:49;;;;;;;;;;;;;;;;;;5036103;28;7194;-76
2022/12/18 04:52:15;;;;;;;;;;;;;;;;;;5035607;28;7338;-76
2022/12/18 04:54:41;;;;;;;;;;;;;;;;;;5035661;28;6908;-76
2022/12/18 04:57:07;;;;;;;;;;;;;;;;;;5023278;28;7060;-76
2022/12/18 04:59:32;;;;;;;;;;;;;;;;;;5015325;28;7303;-76
2022/12/18 05:01:58;;;;;;;;;;;;;;;;;;4999992;28;7300;-76
2022/12/18 05:04:23;;;;;;;;;;;;;;;;;;5015711;28;7082;-76
2022/12/18 05:06:49;;;;;;;;;;;;;;;;;;5015169;28;7312;-76
2022/12/18 05:09:14;;;;;;;;;;;;;;;;;;5015591;28;7277;-76
2022/12/18 05:11:40;;;;;;;;;;;;;;;;;;5015143;28;6947;-76
2022/12/18 05:14:06;;;;;;;;;;;;;;;;;;5015392;28;7187;-76
2022/12/18 05:16:31;;;;;;;;;;;;;;;;;;5015230;28;7034;-76
2022/12/18 05:18:57;;;;;;;;;;;;;;;;;;5015479;28;7319;-76
2022/12/18 05:21:23;;;;;;;;;;;;;;;;;;4997915;28;7086;-76
2022/12/18 05:23:49;;;;;;;;;;;;;;;;;;5015321;28;7174;-76
2022/12/18 05:26:17;;;;;;;;;;;;;;;;;;5015205;28;7233;-76
2022/12/18 05:28:42;;;;;;;;;;;;;;;;;;5014905;28;7989;-76
2022/12/18 05:31:08;;;;;;;;;;;;;;;;;;5029612;28;7376;-76
2022/12/18 05:33:35;;;;;;;;;;;;;;;;;;5017799;28;7215;-76
2022/12/18 05:36:06;;;;;;;;;;;;;;;;;;5033294;28;7178;-76
2022/12/18 05:38:33;;;;;;;;;;;;;;;;;;5035047;28;7408;-76
2022/12/18 05:40:58;;;;;;;;;;;;;;;;;;5016920;28;7012;-76
2022/12/18 05:43:26;;;;;;;;;;;;;;;;;;5034991;28;7105;-76
2022/12/18 05:45:52;;;;;;;;;;;;;;;;;;5034771;28;7080;-76
2022/12/18 05:48:19;;;;;;;;;;;;;;;;;;5034596;28;7257;-76
2022/12/18 05:50:46;;;;;;;;;;;;;;;;;;5015018;28;7405;-77
2022/12/18 05:53:13;;;;;;;;;;;;;;;;;;5014924;28;7052;-77
2022/12/18 05:55:40;;;;;;;;;;;;;;;;;;5015061;28;7584;-77
2022/12/18 05:58:07;;;;;;;;;;;;;;;;;;5026646;28;7224;-77
2022/12/18 06:00:34;;;;;;;;;;;;;;;;;;5014729;28;7178;-76
2022/12/18 06:03:00;;;;;;;;;;;;;;;;;;5015192;28;7438;-76
2022/12/18 06:05:26;;;;;;;;;;;;;;;;;;5014846;28;6814;-76
2022/12/18 06:07:52;;;;;;;;;;;;;;;;;;5014799;28;7169;-76
2022/12/18 06:10:18;;;;;;;;;;;;;;;;;;5014656;28;7003;-76
2022/12/18 06:12:44;;;;;;;;;;;;;;;;;;5015328;28;7247;-76
2022/12/18 06:15:09;;;;;;;;;;;;;;;;;;5014887;28;7038;-76
2022/12/18 06:17:36;;;;;;;;;;;;;;;;;;5014727;28;7519;-76
2022/12/18 06:20:03;;;;;;;;;;;;;;;;;;5015274;28;7153;-76
2022/12/18 06:22:30;;;;;;;;;;;;;;;;;;5014589;28;7075;-76
2022/12/18 06:24:56;;;;;;;;;;;;;;;;;;5014684;28;7084;-76
2022/12/18 06:27:22;;;;;;;;;;;;;;;;;;5014657;28;7018;-76
2022/12/18 06:29:47;;;;;;;;;;;;;;;;;;5015503;28;6965;-76
2022/12/18 06:32:13;;;;;;;;;;;;;;;;;;5014548;28;7302;-76
2022/12/18 06:34:38;;;;;;;;;;;;;;;;;;5014675;28;7260;-77
2022/12/18 06:37:04;;;;;;;;;;;;;;;;;;5015044;28;7066;-76
2022/12/18 06:39:30;;;;;;;;;;;;;;;;;;5014544;28;7262;-78
2022/12/18 06:41:56;;;;;;;;;;;;;;;;;;5014573;28;7003;-67
2022/12/18 06:44:22;;;;;;;;;;;;;;;;;;5015034;28;6845;-70
2022/12/18 06:46:47;;;;;;;;;;;;;;;;;;5014237;28;7773;-71
2022/12/18 06:49:13;;;;;;;;;;;;;;;;;;4996768;28;8700;-76
2022/12/18 06:51:38;;;;;;;;;;;;;;;;;;5016816;28;6857;-74
2022/12/18 06:54:04;;;;;;;;;;;;;;;;;;5014214;28;7176;-74
2022/12/18 06:56:30;;;;;;;;;;;;;;;;;;5017597;28;7223;-74
2022/12/18 06:58:55;;;;;;;;;;;;;;;;;;5027451;28;6927;-73
2022/12/18 07:01:21;;;;;;;;;;;;;;;;;;5026655;28;7055;-73
2022/12/18 07:03:51;;;;;;;;;;;;;;;;;;5037688;28;7232;-73
2022/12/18 07:06:18;;;;;;;;;;;;;;;;;;5033508;28;7215;-73
2022/12/18 07:08:44;;;;;;;;;;;;;;;;;;5017753;28;7434;-73
2022/12/18 07:11:10;;;;;;;;;;;;;;;;;;5017912;28;7144;-73
2022/12/18 07:13:35;;;;;;;;;;;;;;;;;;5023529;28;7249;-73
2022/12/18 07:16:30;;;;;;;;;;;;;;;;;;5036696;28;7329;-73
2022/12/18 07:18:56;;;;;;;;;;;;;;;;;;5027894;28;7145;-73
2022/12/18 07:21:23;;;;;;;;;;;;;;;;;;5036538;28;7646;-73
2022/12/18 07:23:48;;;;;;;;;;;;;;;;;;5036410;28;7213;-73
2022/12/18 07:26:15;;;;;;;;;;;;;;;;;;5032958;28;7106;-73
2022/12/18 07:28:41;;;;;;;;;;;;;;;;;;5028207;28;7346;-73
2022/12/18 07:31:09;;;;;;;;;;;;;;;;;;5026114;28;7167;-73
2022/12/18 07:33:35;;;;;;;;;;;;;;;;;;5023314;28;7046;-73
2022/12/18 07:36:03;;;;;;;;;;;;;;;;;;5033435;28;7074;-74
2022/12/18 07:38:29;;;;;;;;;;;;;;;;;;5028680;28;7179;-74
2022/12/18 07:40:59;;;;;;;;;;;;;;;;;;5020430;28;7052;-73
2022/12/18 07:43:25;;;;;;;;;;;;;;;;;;5016927;28;7165;-73
2022/12/18 07:45:50;;;;;;;;;;;;;;;;;;5018463;28;7115;-74
2022/12/18 07:48:16;;;;;;;;;;;;;;;;;;5035959;28;7189;-74
2022/12/18 07:50:41;;;;;;;;;;;;;;;;;;5035739;28;7129;-73
2022/12/18 07:53:07;;;;;;;;;;;;;;;;;;5036307;28;7315;-73
2022/12/18 07:55:32;;;;;;;;;;;;;;;;;;5036516;28;7032;-74
2022/12/18 07:58:00;;;;;;;;;;;;;;;;;;5032414;28;7241;-74
2022/12/18 08:00:26;;;;;;;;;;;;;;;;;;5036455;28;7285;-74
2022/12/18 08:02:51;;;;;;;;;;;;;;;;;;5018384;28;6940;-73
2022/12/18 08:05:17;;;;;;;;;;;;;;;;;;5016566;28;7383;-71
2022/12/18 08:07:42;;;;;;;;;;;;;;;;;;5033345;28;6961;-73
2022/12/18 08:10:08;;;;;;;;;;;;;;;;;;5033524;28;6903;-73
2022/12/18 08:12:34;;;;;;;;;;;;;;;;;;5000157;28;7066;-73
2022/12/18 08:14:59;;;;;;;;;;;;;;;;;;5036175;28;7449;-73
2022/12/18 08:17:25;;;;;;;;;;;;;;;;;;5036368;28;7417;-74
2022/12/18 08:19:50;;;;;;;;;;;;;;;;;;5036127;28;7511;-74
2022/12/18 08:22:16;;;;;;;;;;;;;;;;;;5036087;28;7122;-74
2022/12/18 08:24:41;;;;;;;;;;;;;;;;;;5036550;28;7024;-74
2022/12/18 08:27:07;;;;;;;;;;;;;;;;;;5035471;28;7239;-74
2022/12/18 08:29:33;;;;;;;;;;;;;;;;;;5035888;28;7606;-74
2022/12/18 08:31:59;;;;;;;;;;;;;;;;;;5035697;28;7510;-74
2022/12/18 08:34:25;;;;;;;;;;;;;;;;;;5035781;28;6804;-74
2022/12/18 08:36:50;;;;;;;;;;;;;;;;;;5035831;28;7198;-74
2022/12/18 08:39:16;;;;;;;;;;;;;;;;;;5035482;28;7052;-74
2022/12/18 08:41:41;;;;;;;;;;;;;;;;;;5035669;28;7048;-74
2022/12/18 08:46:52;;;;;;;;;;;;;;;;;;5035770;28;6917;-74
2022/12/18 08:49:17;;;;;;;;;;;;;;;;;;5017344;28;8422;-74
2022/12/18 08:51:43;;;;;;;;;;;;;;;;;;5035499;28;7133;-74
2022/12/18 08:54:10;;;;;;;;;;;;;;;;;;5035343;28;6946;-74
2022/12/18 08:56:36;;;;;;;;;;;;;;;;;;5019697;28;7373;-74
2022/12/18 08:59:02;;;;;;;;;;;;;;;;;;5015322;28;8236;-79
2022/12/18 09:01:28;;;;;;;;;;;;;;;;;;5029267;28;7123;-79
2022/12/18 09:03:54;;;;;;;;;;;;;;;;;;5035217;28;7121;-79
2022/12/18 09:06:22;;;;;;;;;;;;;;;;;;5024333;28;7169;-79
2022/12/18 09:08:47;;;;;;;;;;;;;;;;;;5024738;28;7264;-79
2022/12/18 09:11:34;;;;;;;;;;;;;;;;;;5034479;28;7156;-79
2022/12/18 09:14:01;;;;;;;;;;;;;;;;;;5034796;28;7446;-79
2022/12/18 09:16:27;;;;;;;;;;;;;;;;;;5029764;28;7113;-79
2022/12/18 09:22:11;;;;;;;;;;;;;;;;;;5026334;28;6756;-79
2022/12/18 09:24:36;;;;;;;;;;;;;;;;;;5014385;28;7069;-79
2022/12/18 09:27:04;;;;;;;;;;;;;;;;;;5014579;28;7176;-79
2022/12/18 09:29:29;;;;;;;;;;;;;;;;;;5014880;28;7045;-79
2022/12/18 09:31:55;;;;;;;;;;;;;;;;;;5011956;28;7160;-79
2022/12/18 09:34:42;;;;;;;;;;;;;;;;;;5024053;28;7098;-79
2022/12/18 09:37:08;;;;;;;;;;;;;;;;;;5035683;28;7447;-79
2022/12/18 09:39:42;;;;;;;;;;;;;;;;;;5034613;28;7082;-79
2022/12/18 09:42:25;;;;;;;;;;;;;;;;;;5034818;28;7613;-79
2022/12/18 09:44:53;;;;;;;;;;;;;;;;;;5027291;28;7148;-79
2022/12/18 09:47:46;;;;;;;;;;;;;;;;;;5031018;28;7179;-79
2022/12/18 09:50:29;;;;;;;;;;;;;;;;;;5032007;28;7081;-79
2022/12/18 09:53:24;;;;;;;;;;;;;;;;;;5034498;28;7326;-79
2022/12/18 09:55:52;;;;;;;;;;;;;;;;;;5034294;28;7287;-79
2022/12/18 09:58:44;;;;;;;;;;;;;;;;;;5034666;28;7060;-78
2022/12/18 10:01:11;;;;;;;;;;;;;;;;;;5014520;28;7165;-75
2022/12/18 10:03:43;;;;;;;;;;;;;;;;;;5034576;28;7175;-75
2022/12/18 10:06:15;;;;;;;;;;;;;;;;;;5034544;28;7037;-77
2022/12/18 10:08:46;;;;;;;;;;;;;;;;;;5034505;28;7288;-79
2022/12/18 10:11:13;;;;;;;;;;;;;;;;;;5034392;28;7066;-79
2022/12/18 10:13:59;;;;;;;;;;;;;;;;;;5019523;28;7172;-79
2022/12/18 10:16:36;;;;;;;;;;;;;;;;;;5014735;28;7235;-79
2022/12/18 10:19:28;;;;;;;;;;;;;;;;;;5014810;28;7173;-79
2022/12/18 10:21:53;;;;;;;;;;;;;;;;;;5012156;28;6937;-79
2022/12/18 10:24:41;;;;;;;;;;;;;;;;;;5014767;28;7419;-79
2022/12/18 10:27:18;;;;;;;;;;;;;;;;;;5015073;28;7030;-79
2022/12/18 10:29:46;;;;;;;;;;;;;;;;;;5014723;28;7163;-79
2022/12/18 10:32:20;;;;;;;;;;;;;;;;;;5010283;28;7220;-76
2022/12/18 10:34:50;;;;;;;;;;;;;;;;;;4998520;28;7447;-76
2022/12/18 10:37:18;;;;;;;;;;;;;;;;;;5018439;28;7074;-79
2022/12/18 10:39:44;;;;;;;;;;;;;;;;;;5018018;28;6917;-76
2022/12/18 10:42:19;;;;;;;;;;;;;;;;;;5019271;28;7058;-76
2022/12/18 10:44:45;;;;;;;;;;;;;;;;;;5038092;28;7118;-78
2022/12/18 10:47:16;;;;;;;;;;;;;;;;;;5037422;28;7176;-79
2022/12/18 10:50:00;;;;;;;;;;;;;;;;;;5037959;28;7167;-79
2022/12/18 10:52:27;;;;;;;;;;;;;;;;;;5037919;28;6930;-76
2022/12/18 10:55:03;;;;;;;;;;;;;;;;;;5037869;28;6968;-79
2022/12/18 11:01:09;;;;;;;;;;;;;;;;;;5029990;28;6849;-79
2022/12/18 11:03:38;;;;;;;;;;;;;;;;;;4996650;28;7064;-79
2022/12/18 11:06:33;;;;;;;;;;;;;;;;;;5030015;28;7190;-76
2022/12/18 11:08:58;;;;;;;;;;;;;;;;;;5037596;28;7326;-76
2022/12/18 11:11:37;;;;;;;;;;;;;;;;;;5037676;28;7557;-76
2022/12/18 11:14:26;;;;;;;;;;;;;;;;;;5038312;28;7399;-76
2022/12/18 11:16:53;;;;;;;;;;;;;;;;;;5034880;28;6844;-79
2022/12/18 11:19:37;;;;;;;;;;;;;;;;;;5037305;28;7152;-79
2022/12/18 11:22:26;;;;;;;;;;;;;;;;;;5037380;28;7635;-79
2022/12/18 11:24:54;;;;;;;;;;;;;;;;;;5038221;28;7169;-79
2022/12/18 11:27:21;;;;;;;;;;;;;;;;;;5037296;28;6968;-76
2022/12/18 11:29:49;;;;;;;;;;;;;;;;;;5037202;28;7198;-76
2022/12/18 11:32:14;;;;;;;;;;;;;;;;;;5021344;28;7327;-76
2022/12/18 11:34:45;;;;;;;;;;;;;;;;;;5017412;28;7127;-76
2022/12/18 11:37:20;;;;;;;;;;;;;;;;;;5017243;28;7229;-76
2022/12/18 11:39:58;;;;;;;;;;;;;;;;;;5017255;28;7105;-76
2022/12/18 11:42:31;;;;;;;;;;;;;;;;;;5017294;28;7198;-77
2022/12/18 11:45:22;;;;;;;;;;;;;;;;;;5017156;28;7076;-79
2022/12/18 11:47:56;;;;;;;;;;;;;;;;;;5018035;28;7211;-79
2022/12/18 11:50:26;;;;;;;;;;;;;;;;;;5017040;28;6949;-76
2022/12/18 11:52:51;;;;;;;;;;;;;;;;;;5020035;28;7399;-79
2022/12/18 11:55:34;;;;;;;;;;;;;;;;;;5036697;28;7136;-79
2022/12/18 11:58:02;;;;;;;;;;;;;;;;;;5026537;28;7026;-76
2022/12/18 12:04:01;;;;;;;;;;;;;;;;;;5036512;28;6935;-79
2022/12/18 12:06:45;;;;;;;;;;;;;;;;;;5036600;28;7079;-76
2022/12/18 12:09:22;;;;;;;;;;;;;;;;;;5036418;28;7239;-76
2022/12/18 12:11:50;;;;;;;;;;;;;;;;;;5036608;28;7221;-76
2022/12/18 12:14:35;;;;;;;;;;;;;;;;;;5036362;28;7136;-76
2022/12/18 12:17:03;;;;;;;;;;;;;;;;;;5036375;28;7203;-76
2022/12/18 12:22:48;;;;;;;;;;;;;;;;;;5036139;28;6685;-76
2022/12/18 12:25:20;;;;;;;;;;;;;;;;;;5035947;28;7059;-76
2022/12/18 12:27:57;;;;;;;;;;;;;;;;;;5036063;28;7154;-76
2022/12/18 12:33:28;;;;;;;;;;;;;;;;;;5035929;28;7019;-76
2022/12/18 12:39:15;;;;;;;;;;;;;;;;;;5036404;28;6800;-78
2022/12/18 12:44:43;;;;;;;;;;;;;;;;;;5036244;28;6920;-79
2022/12/18 12:47:16;;;;;;;;;;;;;;;;;;5035683;28;7144;-79
2022/12/18 12:49:50;;;;;;;;;;;;;;;;;;5035411;28;7211;-76
2022/12/18 12:52:29;;;;;;;;;;;;;;;;;;5036804;28;6955;-76
2022/12/18 12:55:03;;;;;;;;;;;;;;;;;;5027072;28;7360;-79
2022/12/18 12:57:39;;;;;;;;;;;;;;;;;;5031773;28;7406;-79
2022/12/18 13:00:19;;;;;;;;;;;;;;;;;;5018903;28;7455;-79
2022/12/18 13:02:57;;;;;;;;;;;;;;;;;;5015409;28;6963;-79
2022/12/18 13:08:29;;;;;;;;;;;;;;;;;;5015564;28;6936;-79
2022/12/18 13:16:44;;;;;;;;;;;;;;;;;;5019267;28;6685;-76
2022/12/18 13:21:56;;;;;;;;;;;;;;;;;;5015853;28;7010;-76
2022/12/18 13:24:40;;;;;;;;;;;;;;;;;;5015309;28;7249;-76
2022/12/18 13:30:39;;;;;;;;;;;;;;;;;;5014863;28;6967;-76
2022/12/18 13:39:30;;;;;;;;;;;;;;;;;;5015022;28;6678;-79
2022/12/18 13:45:05;;;;;;;;;;;;;;;;;;5014923;28;6908;-79
2022/12/18 13:47:37;;;;;;;;;;;;;;;;;;5014993;28;7171;-79
2022/12/18 13:50:13;;;;;;;;;;;;;;;;;;5014637;28;7287;-79
2022/12/18 13:52:39;;;;;;;;;;;;;;;;;;5014874;28;6821;-79
2022/12/18 13:55:18;;;;;;;;;;;;;;;;;;5015006;28;7131;-79
2022/12/18 13:57:44;;;;;;;;;;;;;;;;;;5014775;28;7047;-79
2022/12/18 14:06:16;;;;;;;;;;;;;;;;;;5014533;28;6678;-79
2022/12/18 14:09:15;;;;;;;;;;;;;;;;;;5015638;28;7157;-79
2022/12/18 14:11:46;;;;;;;;;;;;;;;;;;5022792;28;7491;-79
2022/12/18 14:14:13;;;;;;;;;;;;;;;;;;5038905;28;7079;-79
2022/12/18 14:16:41;;;;;;;;;;;;;;;;;;5038525;28;6890;-79
2022/12/18 14:19:12;;;;;;;;;;;;;;;;;;5038606;28;7063;-79
2022/12/18 14:21:38;;;;;;;;;;;;;;;;;;5039083;28;7058;-79
2022/12/18 14:27:29;;;;;;;;;;;;;;;;;;5038449;28;6980;-80
2022/12/18 14:29:55;;;;;;;;;;;;;;;;;;5038936;28;7200;-79
2022/12/18 14:32:31;;;;;;;;;;;;;;;;;;5037782;28;6943;-79
2022/12/18 14:34:56;;;;;;;;;;;;;;;;;;5018270;28;7052;-79
2022/12/18 14:37:26;;;;;;;;;;;;;;;;;;5018250;28;6991;-79
2022/12/18 14:40:25;;;;;;;;;;;;;;;;;;5025581;28;7586;-79
2022/12/18 14:42:50;;;;;;;;;;;;;;;;;;5038491;28;7208;-79
2022/12/18 14:51:26;;;;;;;;;;;;;;;;;;5037795;28;6936;-76
2022/12/18 14:54:14;;;;;;;;;;;;;;;;;;5037869;28;6939;-76
2022/12/18 14:56:48;;;;;;;;;;;;;;;;;;5038011;28;7105;-76
2022/12/18 14:59:17;;;;;;;;;;;;;;;;;;5037782;28;7512;-80
2022/12/18 15:04:46;;;;;;;;;;;;;;;;;;5037632;28;6694;-80
2022/12/18 15:10:07;;;;;;;;;;;;;;;;;;5038676;28;7112;-79
2022/12/18 15:12:32;;;;;;;;;;;;;;;;;;5037270;28;7139;-79
2022/12/18 15:14:58;;;;;;;;;;;;;;;;;;5037144;28;7323;-79
2022/12/18 15:17:24;;;;;;;;;;;;;;;;;;5037465;28;7179;-79
2022/12/18 15:20:15;;;;;;;;;;;;;;;;;;5036991;28;6957;-80
2022/12/18 15:22:41;;;;;;;;;;;;;;;;;;5037255;28;7216;-80
2022/12/18 15:25:28;;;;;;;;;;;;;;;;;;5037424;28;6826;-79
2022/12/18 15:27:54;;;;;;;;;;;;;;;;;;5037613;28;7196;-80
2022/12/18 15:30:40;;;;;;;;;;;;;;;;;;5036901;28;6915;-80
2022/12/18 15:33:24;;;;;;;;;;;;;;;;;;5036788;28;7937;-80
2022/12/18 15:36:09;;;;;;;;;;;;;;;;;;5035662;28;9084;-80
2022/12/18 15:38:35;;;;;;;;;;;;;;;;;;5037811;28;6970;-80
2022/12/18 15:41:01;;;;;;;;;;;;;;;;;;5036634;28;7089;-80
2022/12/18 15:43:34;;;;;;;;;;;;;;;;;;5036761;28;7203;-80
2022/12/18 15:46:10;;;;;;;;;;;;;;;;;;5037027;28;7184;-80
2022/12/18 15:51:40;;;;;;;;;;;;;;;;;;5036576;28;6927;-80
2022/12/18 15:54:11;;;;;;;;;;;;;;;;;;5031068;28;6938;-80
2022/12/18 16:00:00;;;;;;;;;;;;;;;;;;5035764;28;6936;-80
2022/12/18 16:02:49;;;;;;;;;;;;;;;;;;5019073;28;8519;-80
2022/12/18 16:05:16;;;;;;;;;;;;;;;;;;5036242;28;6976;-80
2022/12/18 16:07:45;;;;;;;;;;;;;;;;;;5036893;28;6932;-80
2022/12/18 16:10:10;;;;;;;;;;;;;;;;;;5036700;28;7403;-80
2022/12/18 16:12:37;;;;;;;;;;;;;;;;;;5036291;28;7458;-78
2022/12/18 16:15:06;;;;;;;;;;;;;;;;;;5037192;28;7063;-73
2022/12/18 16:17:32;;;;;;;;;;;;;;;;;;5036409;28;7208;-75
2022/12/18 16:19:58;;;;;;;;;;;;;;;;;;5036254;28;7093;-76
2022/12/18 16:25:27;;;;;;;;;;;;;;;;;;5036104;28;6849;-76
2022/12/18 16:28:09;;;;;;;;;;;;;;;;;;5036722;28;7202;-76
2022/12/18 16:30:34;;;;;;;;;;;;;;;;;;5035681;28;7243;-76
2022/12/18 16:33:00;;;;;;;;;;;;;;;;;;5033217;28;7404;-76
2022/12/18 16:35:34;;;;;;;;;;;;;;;;;;5034998;28;7870;-76
2022/12/18 16:37:59;;;;;;;;;;;;;;;;;;5029204;28;7258;-80
2022/12/18 16:40:25;;;;;;;;;;;;;;;;;;5015790;28;7048;-80
2022/12/18 16:42:50;;;;;;;;;;;;;;;;;;5020154;28;7065;-80
2022/12/18 16:45:18;;;;;;;;;;;;;;;;;;5015775;28;7832;-80
2022/12/18 16:47:44;;;;;;;;;;;;;;;;;;5015998;28;7159;-80
2022/12/18 16:50:10;;;;;;;;;;;;;;;;;;5016077;28;7300;-80
2022/12/18 16:52:37;;;;;;;;;;;;;;;;;;5035453;28;7052;-80
2022/12/18 16:55:03;;;;;;;;;;;;;;;;;;5035580;28;7160;-80
2022/12/18 17:00:31;;;;;;;;;;;;;;;;;;5035290;28;6980;-80
2022/12/18 17:02:56;;;;;;;;;;;;;;;;;;5035359;28;6947;-80
2022/12/18 17:05:24;;;;;;;;;;;;;;;;;;5036008;28;7034;-80
2022/12/18 17:07:49;;;;;;;;;;;;;;;;;;5035333;28;7164;-80
2022/12/18 17:10:15;;;;;;;;;;;;;;;;;;5035166;28;7586;-80
2022/12/18 17:12:41;;;;;;;;;;;;;;;;;;5035301;28;7091;-80
2022/12/18 17:15:07;;;;;;;;;;;;;;;;;;5035147;28;7049;-80
2022/12/18 17:17:35;;;;;;;;;;;;;;;;;;5035279;28;7071;-80
2022/12/18 17:20:00;;;;;;;;;;;;;;;;;;5034723;28;7540;-80
2022/12/18 17:22:26;;;;;;;;;;;;;;;;;;5034909;28;7165;-80
2022/12/18 17:24:52;;;;;;;;;;;;;;;;;;5035078;28;7431;-80
2022/12/18 17:27:17;;;;;;;;;;;;;;;;;;5017335;28;8425;-80
2022/12/18 17:29:43;;;;;;;;;;;;;;;;;;5034833;28;7020;-80
2022/12/18 17:32:15;;;;;;;;;;;;;;;;;;5034506;28;7043;-80
2022/12/18 17:34:41;;;;;;;;;;;;;;;;;;5035062;28;7245;-80
2022/12/18 17:37:07;;;;;;;;;;;;;;;;;;5034577;28;7082;-80
2022/12/18 17:39:56;;;;;;;;;;;;;;;;;;5014988;28;7241;-80
2022/12/18 17:42:21;;;;;;;;;;;;;;;;;;5032280;28;7091;-80
2022/12/18 17:44:47;;;;;;;;;;;;;;;;;;5034470;28;7149;-80
2022/12/18 17:47:12;;;;;;;;;;;;;;;;;;5034528;28;7338;-80
2022/12/18 17:49:44;;;;;;;;;;;;;;;;;;5034729;28;7096;-80
2022/12/18 17:52:12;;;;;;;;;;;;;;;;;;5034467;28;7163;-80
2022/12/18 17:54:40;;;;;;;;;;;;;;;;;;5033358;28;9104;-80
2022/12/18 17:57:40;;;;;;;;;;;;;;;;;;5034864;28;7096;-80
2022/12/18 18:00:06;;;;;;;;;;;;;;;;;;5034628;28;7049;-80
2022/12/18 18:02:49;;;;;;;;;;;;;;;;;;5034643;28;7212;-80
2022/12/18 18:05:14;;;;;;;;;;;;;;;;;;5034626;28;7576;-80
2022/12/18 18:07:40;;;;;;;;;;;;;;;;;;5034716;28;7175;-80
2022/12/18 18:10:06;;;;;;;;;;;;;;;;;;5034961;28;7038;-80
2022/12/18 18:15:16;;;;;;;;;;;;;;;;;;5034283;28;6789;-80
2022/12/18 18:17:41;;;;;;;;;;;;;;;;;;5034541;28;7110;-80
2022/12/18 18:20:07;;;;;;;;;;;;;;;;;;5034314;28;7360;-80
2022/12/18 18:22:33;;;;;;;;;;;;;;;;;;5034496;28;7517;-80
2022/12/18 18:24:59;;;;;;;;;;;;;;;;;;5034496;28;7149;-80
2022/12/18 18:27:24;;;;;;;;;;;;;;;;;;5034245;28;6887;-80
2022/12/18 18:29:50;;;;;;;;;;;;;;;;;;5034418;28;7146;-80
2022/12/18 18:32:40;;;;;;;;;;;;;;;;;;5022463;28;7383;-80
2022/12/18 18:35:06;;;;;;;;;;;;;;;;;;5010741;28;7866;-80
2022/12/18 18:37:32;;;;;;;;;;;;;;;;;;5012203;28;7225;-80
2022/12/18 18:39:58;;;;;;;;;;;;;;;;;;4999824;28;7126;-80
2022/12/18 18:45:26;;;;;;;;;;;;;;;;;;4994635;28;6925;-80
2022/12/18 18:47:52;;;;;;;;;;;;;;;;;;4994791;28;7219;-81
2022/12/18 18:50:17;;;;;;;;;;;;;;;;;;4995425;28;6920;-81
2022/12/18 18:52:43;;;;;;;;;;;;;;;;;;4994759;28;7200;-80
2022/12/18 18:55:15;;;;;;;;;;;;;;;;;;5001809;28;7364;-80
2022/12/18 18:57:41;;;;;;;;;;;;;;;;;;5017038;28;6997;-80
2022/12/18 19:00:08;;;;;;;;;;;;;;;;;;5017646;28;7039;-81
2022/12/18 19:05:30;;;;;;;;;;;;;;;;;;5008220;28;6962;-76
2022/12/18 19:07:55;;;;;;;;;;;;;;;;;;5017853;28;7271;-76
2022/12/18 19:10:21;;;;;;;;;;;;;;;;;;5017978;28;7331;-76
2022/12/18 19:15:24;;;;;;;;;;;;;;;;;;5017710;28;7068;-75
2022/12/18 19:17:50;;;;;;;;;;;;;;;;;;5017813;28;7187;-76
2022/12/18 19:20:16;;;;;;;;;;;;;;;;;;5017595;28;7099;-75